sensor_id;sensor_type;location;lat;lon;timestamp;pressure;altitude;pressure_sealevel;temperature;humidity
63111;BME280;49201;53.426;10.300;2023-03-21T00:01:29;101652.19;;;7.95;100.00
63111;BME280;49201;53.426;10.300;2023-03-21T00:03:54;101644.53;;;7.95;100.00
63111;BME280;49201;53.426;10.300;2023-03-21T00:06:20;101653.75;;;7.91;100.00
63111;BME280;49201;53.426;10.300;2023-03-21T00:08:46;101651.19;;;7.91;100.00
63111;BME280;49201;53.426;10.300;2023-03-21T00:11:11;101641.91;;;7.93;100.00
63111;BME280;49201;53.426;10.300;2023-03-21T00:13:37;101650.31;;;7.91;100.00
63111;BME280;49201;53.426;10.300;2023-03-21T00:16:17;101650.38;;;7.92;100.00
63111;BME280;49201;53.426;10.300;2023-03-21T00:18:47;101641.81;;;7.90;100.00
63111;BME280;49201;53.426;10.300;2023-03-21T00:21:18;101645.97;;;7.88;100.00
63111;BME280;49201;53.426;10.300;2023-03-21T00:23:44;101640.94;;;7.90;100.00
63111;BME280;49201;53.426;10.300;2023-03-21T00:26:11;101635.75;;;7.88;100.00
63111;BME280;49201;53.426;10.300;2023-03-21T00:28:41;101637.56;;;7.91;100.00
63111;BME280;49201;53.426;10.300;2023-03-21T00:31:07;101635.00;;;7.91;100.00
63111;BME280;49201;53.426;10.300;2023-03-21T00:33:34;101634.16;;;7.90;100.00
63111;BME280;49201;53.426;10.300;2023-03-21T00:36:00;101631.78;;;7.95;100.00
63111;BME280;49201;53.426;10.300;2023-03-21T00:38:27;101631.72;;;7.93;100.00
63111;BME280;49201;53.426;10.300;2023-03-21T00:40:52;101627.44;;;7.92;100.00
63111;BME280;49201;53.426;10.300;2023-03-21T00:43:18;101623.22;;;7.93;100.00
63111;BME280;49201;53.426;10.300;2023-03-21T00:45:50;101626.69;;;7.95;100.00
63111;BME280;49201;53.426;10.300;2023-03-21T00:48:16;101626.63;;;7.93;100.00
63111;BME280;49201;53.426;10.300;2023-03-21T00:50:44;101622.34;;;7.92;100.00
63111;BME280;49201;53.426;10.300;2023-03-21T00:53:11;101623.22;;;7.93;100.00
63111;BME280;49201;53.426;10.300;2023-03-21T00:55:36;101625.03;;;7.95;100.00
63111;BME280;49201;53.426;10.300;2023-03-21T00:58:03;101613.88;;;7.93;100.00
63111;BME280;49201;53.426;10.300;2023-03-21T01:00:29;101611.41;;;7.95;100.00
63111;BME280;49201;53.426;10.300;2023-03-21T01:02:55;101608.84;;;7.95;100.00
63111;BME280;49201;53.426;10.300;2023-03-21T01:05:26;101614.09;;;7.98;100.00
63111;BME280;49201;53.426;10.300;2023-03-21T01:08:14;101605.38;;;7.93;100.00
63111;BME280;49201;53.426;10.300;2023-03-21T01:10:42;101614.00;;;7.96;100.00
63111;BME280;49201;53.426;10.300;2023-03-21T01:13:09;101605.47;;;7.96;100.00
63111;BME280;49201;53.426;10.300;2023-03-21T01:15:35;101606.38;;;7.96;100.00
63111;BME280;49201;53.426;10.300;2023-03-21T01:18:02;101605.63;;;7.99;100.00
63111;BME280;49201;53.426;10.300;2023-03-21T01:20:28;101603.94;;;7.99;100.00
63111;BME280;49201;53.426;10.300;2023-03-21T01:22:54;101609.13;;;8.01;100.00
63111;BME280;49201;53.426;10.300;2023-03-21T01:25:19;101598.09;;;8.02;100.00
63111;BME280;49201;53.426;10.300;2023-03-21T01:27:45;101597.22;;;8.01;100.00
63111;BME280;49201;53.426;10.300;2023-03-21T01:30:11;101589.66;;;8.03;100.00
63111;BME280;49201;53.426;10.300;2023-03-21T01:32:36;101596.47;;;8.04;100.00
63111;BME280;49201;53.426;10.300;2023-03-21T01:35:02;101597.28;;;8.03;100.00
63111;BME280;49201;53.426;10.300;2023-03-21T01:37:28;101596.41;;;8.02;100.00
63111;BME280;49201;53.426;10.300;2023-03-21T01:39:53;101594.75;;;8.03;100.00
63111;BME280;49201;53.426;10.300;2023-03-21T01:42:19;101594.75;;;8.03;100.00
63111;BME280;49201;53.426;10.300;2023-03-21T01:44:59;101598.09;;;8.02;100.00
63111;BME280;49201;53.426;10.300;2023-03-21T01:47:33;101594.75;;;8.03;100.00
63111;BME280;49201;53.426;10.300;2023-03-21T01:50:03;101602.41;;;8.03;100.00
63111;BME280;49201;53.426;10.300;2023-03-21T01:52:37;101598.97;;;8.02;100.00
63111;BME280;49201;53.426;10.300;2023-03-21T01:55:12;101592.19;;;8.03;100.00
63111;BME280;49201;53.426;10.300;2023-03-21T01:57:47;101595.66;;;8.05;100.00
63111;BME280;49201;53.426;10.300;2023-03-21T02:00:19;101591.38;;;8.04;100.00
63111;BME280;49201;53.426;10.300;2023-03-21T02:02:44;101585.44;;;8.03;100.00
63111;BME280;49201;53.426;10.300;2023-03-21T02:06:02;101580.34;;;8.03;100.00
63111;BME280;49201;53.426;10.300;2023-03-21T02:08:35;101581.19;;;8.04;100.00
63111;BME280;49201;53.426;10.300;2023-03-21T02:11:07;101582.06;;;8.04;100.00
63111;BME280;49201;53.426;10.300;2023-03-21T02:13:40;101580.38;;;8.05;100.00
63111;BME280;49201;53.426;10.300;2023-03-21T02:16:11;101578.69;;;8.05;100.00
63111;BME280;49201;53.426;10.300;2023-03-21T02:32:58;101565.94;;;8.05;100.00
63111;BME280;49201;53.426;10.300;2023-03-21T02:35:57;101559.19;;;8.06;100.00
63111;BME280;49201;53.426;10.300;2023-03-21T02:38:40;101557.41;;;8.05;100.00
63111;BME280;49201;53.426;10.300;2023-03-21T02:41:13;101558.22;;;8.04;100.00
63111;BME280;49201;53.426;10.300;2023-03-21T02:43:44;101555.69;;;8.04;100.00
63111;BME280;49201;53.426;10.300;2023-03-21T02:46:16;101556.56;;;8.04;100.00
63111;BME280;49201;53.426;10.300;2023-03-21T02:49:10;101561.66;;;8.04;100.00
63111;BME280;49201;53.426;10.300;2023-03-21T02:51:40;101557.38;;;8.03;100.00
63111;BME280;49201;53.426;10.300;2023-03-21T02:54:17;101557.38;;;8.03;100.00
63111;BME280;49201;53.426;10.300;2023-03-21T02:56:46;101553.94;;;8.03;100.00
63111;BME280;49201;53.426;10.300;2023-03-21T02:59:13;101554.94;;;8.06;100.00
63111;BME280;49201;53.426;10.300;2023-03-21T03:01:40;101550.56;;;8.04;100.00
63111;BME280;49201;53.426;10.300;2023-03-21T03:04:23;101554.94;;;8.06;100.00
63111;BME280;49201;53.426;10.300;2023-03-21T03:07:08;101545.53;;;8.05;100.00
63111;BME280;49201;53.426;10.300;2023-03-21T03:09:58;101542.25;;;8.08;100.00
63111;BME280;49201;53.426;10.300;2023-03-21T03:12:53;101538.78;;;8.06;100.00
63111;BME280;49201;53.426;10.300;2023-03-21T03:15:34;101541.38;;;8.07;100.00
63111;BME280;49201;53.426;10.300;2023-03-21T03:21:41;101546.34;;;8.04;100.00
63111;BME280;49201;53.426;10.300;2023-03-21T03:24:38;101538.78;;;8.06;100.00
63111;BME280;49201;53.426;10.300;2023-03-21T03:27:11;101539.69;;;8.08;100.00
63111;BME280;49201;53.426;10.300;2023-03-21T03:29:41;101540.56;;;8.08;100.00
63111;BME280;49201;53.426;10.300;2023-03-21T03:32:13;101537.16;;;8.08;100.00
63111;BME280;49201;53.426;10.300;2023-03-21T03:34:44;101533.84;;;8.10;100.00
63111;BME280;49201;53.426;10.300;2023-03-21T03:37:19;101541.50;;;8.10;100.00
63111;BME280;49201;53.426;10.300;2023-03-21T03:39:57;101538.94;;;8.10;100.00
63111;BME280;49201;53.426;10.300;2023-03-21T03:42:39;101533.91;;;8.12;100.00
63111;BME280;49201;53.426;10.300;2023-03-21T03:45:17;101533.91;;;8.12;100.00
63111;BME280;49201;53.426;10.300;2023-03-21T03:47:55;101523.72;;;8.12;100.00
63111;BME280;49201;53.426;10.300;2023-03-21T03:55:42;101518.75;;;8.15;100.00
63111;BME280;49201;53.426;10.300;2023-03-21T03:58:11;101516.97;;;8.14;100.00
63111;BME280;49201;53.426;10.300;2023-03-21T04:00:40;101516.94;;;8.12;100.00
63111;BME280;49201;53.426;10.300;2023-03-21T04:03:06;101517.78;;;8.13;100.00
63111;BME280;49201;53.426;10.300;2023-03-21T04:05:34;101522.03;;;8.12;100.00
63111;BME280;49201;53.426;10.300;2023-03-21T04:07:59;101522.81;;;8.11;100.00
63111;BME280;49201;53.426;10.300;2023-03-21T04:10:32;101518.63;;;8.12;100.00
63111;BME280;49201;53.426;10.300;2023-03-21T04:12:59;101526.25;;;8.12;100.00
63111;BME280;49201;53.426;10.300;2023-03-21T04:15:37;101522.75;;;8.10;100.00
63111;BME280;49201;53.426;10.300;2023-03-21T04:18:10;101525.38;;;8.11;100.00
63111;BME280;49201;53.426;10.300;2023-03-21T04:20:35;101532.97;;;8.10;100.00
63111;BME280;49201;53.426;10.300;2023-03-21T04:23:01;101516.81;;;8.09;100.00
63111;BME280;49201;53.426;10.300;2023-03-21T04:25:27;101531.28;;;8.10;100.00
63111;BME280;49201;53.426;10.300;2023-03-21T04:27:55;101521.97;;;8.11;100.00
63111;BME280;49201;53.426;10.300;2023-03-21T04:30:33;101526.19;;;8.10;100.00
63111;BME280;49201;53.426;10.300;2023-03-21T04:33:19;101519.50;;;8.12;100.00
63111;BME280;49201;53.426;10.300;2023-03-21T04:35:52;101516.06;;;8.12;100.00
63111;BME280;49201;53.426;10.300;2023-03-21T04:38:24;101512.56;;;8.10;100.00
63111;BME280;49201;53.426;10.300;2023-03-21T04:40:51;101513.38;;;8.09;100.00
63111;BME280;49201;53.426;10.300;2023-03-21T04:43:16;101516.88;;;8.11;100.00
63111;BME280;49201;53.426;10.300;2023-03-21T04:45:43;101515.06;;;8.08;100.00
63111;BME280;49201;53.426;10.300;2023-03-21T04:48:08;101513.38;;;8.09;100.00
63111;BME280;49201;53.426;10.300;2023-03-21T04:50:34;101518.47;;;8.09;100.00
63111;BME280;49201;53.426;10.300;2023-03-21T04:52:59;101515.09;;;8.10;100.00
63111;BME280;49201;53.426;10.300;2023-03-21T04:55:25;101518.53;;;8.10;100.00
63111;BME280;49201;53.426;10.300;2023-03-21T04:57:53;101514.31;;;8.11;100.00
63111;BME280;49201;53.426;10.300;2023-03-21T05:00:20;101519.38;;;8.09;100.00
63111;BME280;49201;53.426;10.300;2023-03-21T05:02:45;101521.03;;;8.09;100.00
63111;BME280;49201;53.426;10.300;2023-03-21T05:05:11;101521.09;;;8.10;100.00
63111;BME280;49201;53.426;10.300;2023-03-21T05:07:40;101515.25;;;8.13;100.00
63111;BME280;49201;53.426;10.300;2023-03-21T05:10:09;101516.06;;;8.12;100.00
63111;BME280;49201;53.426;10.300;2023-03-21T05:12:37;101515.19;;;8.11;100.00
63111;BME280;49201;53.426;10.300;2023-03-21T05:15:04;101516.13;;;8.13;100.00
63111;BME280;49201;53.426;10.300;2023-03-21T05:17:30;101514.50;;;8.15;100.00
63111;BME280;49201;53.426;10.300;2023-03-21T05:19:56;101512.75;;;8.14;100.00
63111;BME280;49201;53.426;10.300;2023-03-21T05:22:23;101515.38;;;8.16;100.00
63111;BME280;49201;53.426;10.300;2023-03-21T05:24:52;101512.00;;;8.17;100.00
63111;BME280;49201;53.426;10.300;2023-03-21T05:27:48;101506.91;;;8.17;100.00
63111;BME280;49201;53.426;10.300;2023-03-21T05:30:19;101510.47;;;8.20;100.00
63111;BME280;49201;53.426;10.300;2023-03-21T05:32:47;101501.94;;;8.20;100.00
63111;BME280;49201;53.426;10.300;2023-03-21T05:35:13;101508.72;;;8.19;100.00
63111;BME280;49201;53.426;10.300;2023-03-21T05:37:39;101506.91;;;8.17;100.00
63111;BME280;49201;53.426;10.300;2023-03-21T05:40:06;101503.69;;;8.21;100.00
63111;BME280;49201;53.426;10.300;2023-03-21T05:42:32;101509.72;;;8.23;100.00
63111;BME280;49201;53.426;10.300;2023-03-21T05:44:58;101508.94;;;8.24;100.00
63111;BME280;49201;53.426;10.300;2023-03-21T05:47:28;101501.16;;;8.21;100.00
63111;BME280;49201;53.426;10.300;2023-03-21T05:49:56;101505.50;;;8.23;100.00
63111;BME280;49201;53.426;10.300;2023-03-21T05:52:22;101508.97;;;8.25;100.00
63111;BME280;49201;53.426;10.300;2023-03-21T05:54:48;101505.66;;;8.28;100.00
63111;BME280;49201;53.426;10.300;2023-03-21T05:57:14;101502.25;;;8.27;100.00
63111;BME280;49201;53.426;10.300;2023-03-21T06:00:00;101505.78;;;8.31;100.00
63111;BME280;49201;53.426;10.300;2023-03-21T06:02:26;101500.69;;;8.31;100.00
63111;BME280;49201;53.426;10.300;2023-03-21T06:04:53;101499.03;;;8.31;100.00
63111;BME280;49201;53.426;10.300;2023-03-21T06:07:20;101502.50;;;8.33;100.00
63111;BME280;49201;53.426;10.300;2023-03-21T06:09:45;101508.56;;;8.37;100.00
63111;BME280;49201;53.426;10.300;2023-03-21T06:12:11;101503.47;;;8.37;100.00
63111;BME280;49201;53.426;10.300;2023-03-21T06:14:46;101499.38;;;8.40;100.00
63111;BME280;49201;53.426;10.300;2023-03-21T06:17:21;101496.06;;;8.43;100.00
63111;BME280;49201;53.426;10.300;2023-03-21T06:19:52;101507.06;;;8.42;100.00
63111;BME280;49201;53.426;10.300;2023-03-21T06:22:23;101501.28;;;8.46;100.00
63111;BME280;49201;53.426;10.300;2023-03-21T06:24:48;101497.06;;;8.46;100.00
63111;BME280;49201;53.426;10.300;2023-03-21T06:27:16;101500.59;;;8.50;100.00
63111;BME280;49201;53.426;10.300;2023-03-21T06:30:03;101495.66;;;8.54;100.00
63111;BME280;49201;53.426;10.300;2023-03-21T06:32:34;101499.97;;;8.55;100.00
63111;BME280;49201;53.426;10.300;2023-03-21T06:35:07;101498.38;;;8.59;100.00
63111;BME280;49201;53.426;10.300;2023-03-21T06:37:34;101502.50;;;8.55;100.00
63111;BME280;49201;53.426;10.300;2023-03-21T06:39:59;101478.09;;;8.62;100.00
63111;BME280;49201;53.426;10.300;2023-03-21T06:42:25;101490.91;;;8.63;100.00
63111;BME280;49201;53.426;10.300;2023-03-21T06:44:56;101488.38;;;8.65;100.00
63111;BME280;49201;53.426;10.300;2023-03-21T06:47:22;101490.16;;;8.66;100.00
63111;BME280;49201;53.426;10.300;2023-03-21T06:49:48;101487.63;;;8.67;100.00
63111;BME280;49201;53.426;10.300;2023-03-21T06:52:13;101484.38;;;8.71;100.00
63111;BME280;49201;53.426;10.300;2023-03-21T06:54:39;101481.03;;;8.72;100.00
63111;BME280;49201;53.426;10.300;2023-03-21T06:57:10;101492.09;;;8.73;100.00
63111;BME280;49201;53.426;10.300;2023-03-21T06:59:36;101489.56;;;8.73;100.00
63111;BME280;49201;53.426;10.300;2023-03-21T07:02:05;101490.31;;;8.70;100.00
63111;BME280;49201;53.426;10.300;2023-03-21T07:04:37;101487.75;;;8.70;100.00
63111;BME280;49201;53.426;10.300;2023-03-21T07:07:04;101485.91;;;8.66;100.00
63111;BME280;49201;53.426;10.300;2023-03-21T07:09:30;101488.56;;;8.69;100.00
63111;BME280;49201;53.426;10.300;2023-03-21T07:12:01;101485.19;;;8.70;100.00
63111;BME280;49201;53.426;10.300;2023-03-21T07:14:37;101484.56;;;8.76;100.00
63111;BME280;49201;53.426;10.300;2023-03-21T07:17:03;101484.72;;;8.80;100.00
63111;BME280;49201;53.426;10.300;2023-03-21T07:19:28;101482.28;;;8.83;100.00
63111;BME280;49201;53.426;10.300;2023-03-21T07:21:55;101485.31;;;8.97;100.00
63111;BME280;49201;53.426;10.300;2023-03-21T07:24:20;101477.72;;;8.98;100.00
63111;BME280;49201;53.426;10.300;2023-03-21T07:26:45;101480.34;;;9.00;100.00
63111;BME280;49201;53.426;10.300;2023-03-21T07:29:11;101478.00;;;9.06;100.00
63111;BME280;49201;53.426;10.300;2023-03-21T07:31:36;101478.81;;;9.05;100.00
63111;BME280;49201;53.426;10.300;2023-03-21T07:34:04;101481.38;;;9.05;100.00
63111;BME280;49201;53.426;10.300;2023-03-21T07:36:30;101480.56;;;9.06;100.00
63111;BME280;49201;53.426;10.300;2023-03-21T07:38:55;101484.25;;;9.14;100.00
63111;BME280;49201;53.426;10.300;2023-03-21T07:41:22;101484.13;;;9.11;100.00
63111;BME280;49201;53.426;10.300;2023-03-21T07:43:49;101486.09;;;9.18;100.00
63111;BME280;49201;53.426;10.300;2023-03-21T07:46:14;101481.88;;;9.18;100.00
63111;BME280;49201;53.426;10.300;2023-03-21T07:48:40;101476.91;;;9.23;100.00
63111;BME280;49201;53.426;10.300;2023-03-21T07:51:06;101477.94;;;9.28;100.00
63111;BME280;49201;53.426;10.300;2023-03-21T07:53:33;101477.78;;;9.23;100.00
63111;BME280;49201;53.426;10.300;2023-03-21T07:55:59;101479.59;;;9.26;100.00
63111;BME280;49201;53.426;10.300;2023-03-21T07:58:25;101487.28;;;9.27;100.00
63111;BME280;49201;53.426;10.300;2023-03-21T08:00:51;101483.81;;;9.25;100.00
63111;BME280;49201;53.426;10.300;2023-03-21T08:03:17;101480.44;;;9.26;100.00
63111;BME280;49201;53.426;10.300;2023-03-21T08:05:43;101481.47;;;9.31;100.00
63111;BME280;49201;53.426;10.300;2023-03-21T08:08:09;101480.69;;;9.34;100.00
63111;BME280;49201;53.426;10.300;2023-03-21T08:10:35;101482.41;;;9.33;100.00
63111;BME280;49201;53.426;10.300;2023-03-21T08:13:00;101485.00;;;9.35;100.00
63111;BME280;49201;53.426;10.300;2023-03-21T08:15:26;101471.34;;;9.34;100.00
63111;BME280;49201;53.426;10.300;2023-03-21T08:17:51;101484.97;;;9.33;100.00
63111;BME280;49201;53.426;10.300;2023-03-21T08:20:19;101471.25;;;9.31;100.00
63111;BME280;49201;53.426;10.300;2023-03-21T08:22:45;101472.25;;;9.36;100.00
63111;BME280;49201;53.426;10.300;2023-03-21T08:25:13;101468.03;;;9.37;100.00
63111;BME280;49201;53.426;10.300;2023-03-21T08:27:40;101479.06;;;9.36;100.00
63111;BME280;49201;53.426;10.300;2023-03-21T08:30:09;101478.25;;;9.37;100.00
63111;BME280;49201;53.426;10.300;2023-03-21T08:32:34;101468.22;;;9.41;100.00
63111;BME280;49201;53.426;10.300;2023-03-21T08:35:04;101470.00;;;9.45;100.00
63111;BME280;49201;53.426;10.300;2023-03-21T08:37:32;101467.69;;;9.51;100.00
63111;BME280;49201;53.426;10.300;2023-03-21T08:39:58;101472.09;;;9.55;100.00
63111;BME280;49201;53.426;10.300;2023-03-21T08:42:23;101463.22;;;9.71;100.00
63111;BME280;49201;53.426;10.300;2023-03-21T08:44:49;101469.25;;;9.73;100.00
63111;BME280;49201;53.426;10.300;2023-03-21T08:47:15;101452.78;;;9.90;100.00
63111;BME280;49201;53.426;10.300;2023-03-21T08:49:40;101465.41;;;9.85;100.00
63111;BME280;49201;53.426;10.300;2023-03-21T08:52:06;101468.00;;;9.87;100.00
63111;BME280;49201;53.426;10.300;2023-03-21T08:54:32;101461.88;;;9.82;100.00
63111;BME280;49201;53.426;10.300;2023-03-21T08:56:57;101459.94;;;9.75;100.00
63111;BME280;49201;53.426;10.300;2023-03-21T08:59:23;101464.34;;;9.79;100.00
63111;BME280;49201;53.426;10.300;2023-03-21T09:01:48;101459.28;;;9.80;100.00
63111;BME280;49201;53.426;10.300;2023-03-21T09:04:14;101460.88;;;9.77;100.00
63111;BME280;49201;53.426;10.300;2023-03-21T09:06:39;101465.16;;;9.78;100.00
63111;BME280;49201;53.426;10.300;2023-03-21T09:09:10;101462.72;;;9.81;100.00
63111;BME280;49201;53.426;10.300;2023-03-21T09:11:35;101460.81;;;9.75;100.00
63111;BME280;49201;53.426;10.300;2023-03-21T09:14:01;101461.78;;;9.79;100.00
63111;BME280;49201;53.426;10.300;2023-03-21T09:16:26;101459.31;;;9.82;100.00
63111;BME280;49201;53.426;10.300;2023-03-21T09:18:52;101457.72;;;9.85;100.00
63111;BME280;49201;53.426;10.300;2023-03-21T09:21:20;101465.28;;;9.81;100.00
63111;BME280;49201;53.426;10.300;2023-03-21T09:23:48;101467.09;;;9.85;100.00
63111;BME280;49201;53.426;10.300;2023-03-21T09:26:15;101462.84;;;9.85;100.00
63111;BME280;49201;53.426;10.300;2023-03-21T09:28:41;101464.69;;;9.89;100.00
63111;BME280;49201;53.426;10.300;2023-03-21T09:31:07;101462.41;;;9.98;100.00
63111;BME280;49201;53.426;10.300;2023-03-21T09:33:35;101467.44;;;9.95;100.00
63111;BME280;49201;53.426;10.300;2023-03-21T09:36:02;101453.03;;;9.99;100.00
63111;BME280;49201;53.426;10.300;2023-03-21T09:38:31;101454.97;;;10.04;100.00
63111;BME280;49201;53.426;10.300;2023-03-21T09:41:09;101455.84;;;10.05;100.00
63111;BME280;49201;53.426;10.300;2023-03-21T09:49:04;101444.38;;;10.20;100.00
63111;BME280;49201;53.426;10.300;2023-03-21T09:51:43;101439.41;;;10.25;100.00
63111;BME280;49201;53.426;10.300;2023-03-21T09:56:48;101443.97;;;10.35;100.00
63111;BME280;49201;53.426;10.300;2023-03-21T09:59:21;101443.13;;;10.36;100.00
63111;BME280;49201;53.426;10.300;2023-03-21T10:01:49;101446.44;;;10.32;100.00
63111;BME280;49201;53.426;10.300;2023-03-21T10:04:15;101447.19;;;10.28;100.00
63111;BME280;49201;53.426;10.300;2023-03-21T10:06:44;101445.44;;;10.27;100.00
63111;BME280;49201;53.426;10.300;2023-03-21T10:09:18;101449.03;;;10.33;100.00
63111;BME280;49201;53.426;10.300;2023-03-21T10:11:59;101438.13;;;10.39;100.00
63111;BME280;49201;53.426;10.300;2023-03-21T10:14:42;101437.38;;;10.43;100.00
63111;BME280;49201;53.426;10.300;2023-03-21T10:19:45;101436.69;;;10.48;100.00
63111;BME280;49201;53.426;10.300;2023-03-21T10:22:11;101435.09;;;10.52;100.00
63111;BME280;49201;53.426;10.300;2023-03-21T10:24:37;101430.59;;;10.43;100.00
63111;BME280;49201;53.426;10.300;2023-03-21T10:27:03;101430.53;;;10.42;100.00
63111;BME280;49201;53.426;10.300;2023-03-21T10:29:39;101434.78;;;10.41;100.00
63111;BME280;49201;53.426;10.300;2023-03-21T10:32:09;101432.25;;;10.43;100.00
63111;BME280;49201;53.426;10.300;2023-03-21T10:34:38;101429.81;;;10.46;100.00
63111;BME280;49201;53.426;10.300;2023-03-21T10:37:05;101429.81;;;10.47;100.00
63111;BME280;49201;53.426;10.300;2023-03-21T10:39:34;101429.69;;;10.43;100.00
63111;BME280;49201;53.426;10.300;2023-03-21T10:42:01;101424.63;;;10.44;100.00
63111;BME280;49201;53.426;10.300;2023-03-21T10:44:31;101431.38;;;10.42;100.00
63111;BME280;49201;53.426;10.300;2023-03-21T10:47:03;101427.03;;;10.38;100.00
63111;BME280;49201;53.426;10.300;2023-03-21T10:49:29;101425.47;;;10.43;100.00
63111;BME280;49201;53.426;10.300;2023-03-21T10:52:02;101423.25;;;10.55;100.00
63111;BME280;49201;53.426;10.300;2023-03-21T10:54:31;101428.25;;;10.51;100.00
63111;BME280;49201;53.426;10.300;2023-03-21T10:57:06;101421.34;;;10.48;100.00
63111;BME280;49201;53.426;10.300;2023-03-21T10:59:43;101421.28;;;10.47;100.00
63111;BME280;49201;53.426;10.300;2023-03-21T11:02:18;101423.91;;;10.48;100.00
63111;BME280;49201;53.426;10.300;2023-03-21T11:04:45;101420.34;;;10.43;100.00
63111;BME280;49201;53.426;10.300;2023-03-21T11:07:13;101416.00;;;10.41;100.00
63111;BME280;49201;53.426;10.300;2023-03-21T11:09:53;101408.38;;;10.44;100.00
63111;BME280;49201;53.426;10.300;2023-03-21T11:12:32;101402.44;;;10.45;100.00
63111;BME280;49201;53.426;10.300;2023-03-21T11:17:54;101402.44;;;10.43;100.00
63111;BME280;49201;53.426;10.300;2023-03-21T11:20:21;101399.03;;;10.44;100.00
63111;BME280;49201;53.426;10.300;2023-03-21T11:22:47;101404.16;;;10.44;100.00
63111;BME280;49201;53.426;10.300;2023-03-21T11:27:49;101411.16;;;10.50;100.00
63111;BME280;49201;53.426;10.300;2023-03-21T11:30:33;101406.72;;;10.44;100.00
63111;BME280;49201;53.426;10.300;2023-03-21T11:33:03;101405.06;;;10.46;100.00
63111;BME280;49201;53.426;10.300;2023-03-21T11:35:33;101405.09;;;10.48;100.00
63111;BME280;49201;53.426;10.300;2023-03-21T11:38:00;101401.97;;;10.58;100.00
63111;BME280;49201;53.426;10.300;2023-03-21T11:40:33;101397.81;;;10.61;100.00
63111;BME280;49201;53.426;10.300;2023-03-21T11:45:30;101386.81;;;10.65;100.00
63111;BME280;49201;53.426;10.300;2023-03-21T11:47:58;101385.50;;;10.79;100.00
63111;BME280;49201;53.426;10.300;2023-03-21T11:53:22;101378.00;;;10.85;100.00
63111;BME280;49201;53.426;10.300;2023-03-21T11:58:53;101368.53;;;10.83;100.00
63111;BME280;49201;53.426;10.300;2023-03-21T12:01:36;101370.25;;;10.84;100.00
63111;BME280;49201;53.426;10.300;2023-03-21T12:04:41;101367.56;;;10.79;100.00
63111;BME280;49201;53.426;10.300;2023-03-21T12:10:29;101356.56;;;10.83;100.00
63111;BME280;49201;53.426;10.300;2023-03-21T12:15:43;101362.44;;;10.79;100.00
63111;BME280;49201;53.426;10.300;2023-03-21T12:21:45;101361.66;;;10.82;100.00
63111;BME280;49201;53.426;10.300;2023-03-21T12:24:21;101355.53;;;10.77;100.00
63111;BME280;49201;53.426;10.300;2023-03-21T12:26:57;101353.75;;;10.73;100.00
63111;BME280;49201;53.426;10.300;2023-03-21T12:29:30;101358.16;;;10.78;100.00
63111;BME280;49201;53.426;10.300;2023-03-21T12:32:04;101348.78;;;10.79;100.00
63111;BME280;49201;53.426;10.300;2023-03-21T12:37:31;101338.47;;;11.08;100.00
63111;BME280;49201;53.426;10.300;2023-03-21T12:45:28;101328.31;;;11.13;100.00
63111;BME280;49201;53.426;10.300;2023-03-21T12:49:15;101326.31;;;11.01;100.00
63111;BME280;49201;53.426;10.300;2023-03-21T12:51:11;101328.03;;;11.01;100.00
63111;BME280;49201;53.426;10.300;2023-03-21T12:56:13;101310.69;;;10.92;100.00
63111;BME280;49201;53.426;10.300;2023-03-21T12:58:48;101319.13;;;10.87;100.00
63111;BME280;49201;53.426;10.300;2023-03-21T13:01:16;101317.53;;;10.92;100.00
63111;BME280;49201;53.426;10.300;2023-03-21T13:03:48;101317.34;;;10.86;100.00
63111;BME280;49201;53.426;10.300;2023-03-21T13:06:17;101318.16;;;10.83;100.00
63111;BME280;49201;53.426;10.300;2023-03-21T13:11:42;101308.72;;;10.82;100.00
63111;BME280;49201;53.426;10.300;2023-03-21T13:14:22;101298.44;;;10.81;100.00
63111;BME280;49201;53.426;10.300;2023-03-21T13:16:55;101300.13;;;10.79;100.00
63111;BME280;49201;53.426;10.300;2023-03-21T13:19:44;101294.91;;;10.76;100.00
63111;BME280;49201;53.426;10.300;2023-03-21T13:24:57;101285.59;;;10.78;100.00
63111;BME280;49201;53.426;10.300;2023-03-21T13:30:19;101284.88;;;10.85;100.00
63111;BME280;49201;53.426;10.300;2023-03-21T13:33:19;101283.13;;;10.82;100.00
63111;BME280;49201;53.426;10.300;2023-03-21T13:35:43;101279.84;;;10.88;100.00
63111;BME280;49201;53.426;10.300;2023-03-21T13:38:19;101279.91;;;10.91;100.00
63111;BME280;49201;53.426;10.300;2023-03-21T13:40:51;101275.66;;;10.91;100.00
63111;BME280;49201;53.426;10.300;2023-03-21T13:43:43;101272.16;;;10.88;100.00
63111;BME280;49201;53.426;10.300;2023-03-21T13:46:10;101271.34;;;10.89;100.00
63111;BME280;49201;53.426;10.300;2023-03-21T13:51:50;101261.41;;;11.01;100.00
63111;BME280;49201;53.426;10.300;2023-03-21T13:56:59;101259.06;;;11.10;100.00
63111;BME280;49201;53.426;10.300;2023-03-21T13:59:43;101262.44;;;11.09;100.00
63111;BME280;49201;53.426;10.300;2023-03-21T14:04:56;101258.03;;;11.03;100.00
63111;BME280;49201;53.426;10.300;2023-03-21T14:07:28;101251.28;;;11.07;100.00
63111;BME280;49201;53.426;10.300;2023-03-21T14:10:00;101250.34;;;11.03;100.00
63111;BME280;49201;53.426;10.300;2023-03-21T14:12:36;101246.81;;;11.00;100.00
63111;BME280;49201;53.426;10.300;2023-03-21T14:17:59;101243.50;;;11.04;100.00
63111;BME280;49201;53.426;10.300;2023-03-21T14:20:43;101243.56;;;11.05;100.00
63111;BME280;49201;53.426;10.300;2023-03-21T14:23:14;101242.59;;;11.00;100.00